createdAt,value
2022-09-26T00:02:02.709Z,15.10
2022-09-26T00:04:10.086Z,15.10
2022-09-26T00:06:17.943Z,15.00
2022-09-26T00:08:22.233Z,15.10
2022-09-26T00:10:26.400Z,15.10
2022-09-26T00:12:30.460Z,15.00
2022-09-26T00:14:34.739Z,15.00
2022-09-26T00:16:39.936Z,15.00
2022-09-26T00:18:48.778Z,15.10
2022-09-26T00:20:53.709Z,15.10
2022-09-26T00:22:59.242Z,15.10
2022-09-26T00:25:03.323Z,14.90
2022-09-26T00:27:07.555Z,14.90
2022-09-26T00:29:13.899Z,14.80
2022-09-26T00:31:22.062Z,14.90
2022-09-26T00:33:26.387Z,14.90
2022-09-26T00:35:31.527Z,14.90
2022-09-26T00:37:35.644Z,14.90
2022-09-26T00:39:41.593Z,14.90
2022-09-26T00:41:46.647Z,14.90
2022-09-26T00:43:52.290Z,14.90
2022-09-26T00:45:58.915Z,14.90
2022-09-26T00:48:06.808Z,14.90
2022-09-26T00:50:21.780Z,14.90
2022-09-26T00:52:30.812Z,14.80
2022-09-26T00:54:37.498Z,14.90
2022-09-26T00:56:46.002Z,15.00
2022-09-26T00:58:54.927Z,15.00
2022-09-26T01:01:00.900Z,15.00
2022-09-26T01:03:05.477Z,15.00
2022-09-26T01:05:11.685Z,15.00
2022-09-26T01:07:20.354Z,15.00
2022-09-26T01:09:24.547Z,15.00
2022-09-26T01:11:30.172Z,14.90
2022-09-26T01:13:37.946Z,14.90
2022-09-26T01:15:42.150Z,14.90
2022-09-26T01:17:47.865Z,15.00
2022-09-26T01:20:15.524Z,15.00
2022-09-26T01:22:49.695Z,15.00
2022-09-26T01:25:08.888Z,15.00
2022-09-26T01:27:38.386Z,15.00
2022-09-26T01:30:04.934Z,15.00
2022-09-26T01:32:55.513Z,15.00
2022-09-26T01:35:10.516Z,15.10
2022-09-26T01:37:23.844Z,14.90
2022-09-26T01:39:42.693Z,14.80
2022-09-26T01:41:57.719Z,14.80
2022-09-26T01:44:15.796Z,14.70
2022-09-26T01:46:29.804Z,14.70
2022-09-26T01:48:39.255Z,14.70
2022-09-26T01:50:47.370Z,14.80
2022-09-26T01:52:58.822Z,14.80
2022-09-26T01:55:06.342Z,14.90
2022-09-26T01:57:17.994Z,14.90
2022-09-26T01:59:26.333Z,15.00
2022-09-26T02:01:37.574Z,15.00
2022-09-26T02:03:50.189Z,14.90
2022-09-26T02:05:57.752Z,15.00
2022-09-26T02:08:08.012Z,14.90
2022-09-26T02:10:18.318Z,15.00
2022-09-26T02:12:31.355Z,15.00
2022-09-26T02:14:38.748Z,15.00
2022-09-26T02:16:49.083Z,15.00
2022-09-26T02:18:58.168Z,15.00
2022-09-26T02:21:07.951Z,15.00
2022-09-26T02:23:13.061Z,15.00
2022-09-26T02:25:18.236Z,15.10
2022-09-26T02:27:22.915Z,15.10
2022-09-26T02:29:28.293Z,15.40
2022-09-26T02:31:36.667Z,16.00
2022-09-26T02:33:43.113Z,16.60
2022-09-26T02:35:57.796Z,17.20
2022-09-26T02:38:07.334Z,17.40
2022-09-26T02:40:20.420Z,17.60
2022-09-26T02:42:31.558Z,17.70
2022-09-26T02:44:50.155Z,17.60
2022-09-26T02:47:23.037Z,17.40
2022-09-26T02:49:45.476Z,17.50
2022-09-26T02:52:09.059Z,17.70
2022-09-26T02:54:23.025Z,17.80
2022-09-26T02:56:36.160Z,17.80
2022-09-26T02:58:49.011Z,18.00
2022-09-26T03:01:01.993Z,17.90
2022-09-26T03:03:14.110Z,17.90
2022-09-26T03:05:22.502Z,17.90
2022-09-26T03:07:37.219Z,18.10
2022-09-26T03:09:44.166Z,18.30
2022-09-26T03:11:51.007Z,18.40
2022-09-26T03:13:57.864Z,18.40
2022-09-26T03:16:04.002Z,18.50
2022-09-26T03:18:12.187Z,18.40
2022-09-26T03:20:20.397Z,18.30
2022-09-26T03:22:26.310Z,18.20
2022-09-26T03:24:30.989Z,18.30
2022-09-26T03:26:37.405Z,18.20
2022-09-26T03:28:42.614Z,17.80
2022-09-26T03:30:47.680Z,17.60
2022-09-26T03:33:15.286Z,17.50
2022-09-26T03:35:21.104Z,17.80
2022-09-26T03:37:25.674Z,17.70
2022-09-26T03:39:30.001Z,17.70
2022-09-26T03:41:38.524Z,17.70
2022-09-26T03:44:04.538Z,17.70
2022-09-26T03:46:28.630Z,17.60
2022-09-26T03:48:33.138Z,17.40
2022-09-26T03:50:40.537Z,17.20
2022-09-26T03:52:44.668Z,17.30
2022-09-26T03:54:49.294Z,17.70
2022-09-26T03:56:55.560Z,17.70
2022-09-26T03:58:59.838Z,17.60
2022-09-26T04:01:06.551Z,17.80
2022-09-26T04:03:11.238Z,17.60
2022-09-26T04:05:17.881Z,18.00
2022-09-26T04:07:24.160Z,18.30
2022-09-26T04:09:28.779Z,18.70
2022-09-26T04:11:33.551Z,19.00
2022-09-26T04:13:54.524Z,19.40
2022-09-26T04:16:05.997Z,19.70
2022-09-26T04:18:10.517Z,20.10
2022-09-26T04:20:14.989Z,20.30
2022-09-26T04:22:24.870Z,20.50
2022-09-26T04:24:29.764Z,20.70
2022-09-26T04:26:34.474Z,20.80
2022-09-26T04:28:42.520Z,20.90
2022-09-26T04:30:47.480Z,20.90
2022-09-26T04:32:52.067Z,21.00
2022-09-26T04:35:15.221Z,21.10
2022-09-26T04:37:21.242Z,21.10
2022-09-26T04:39:27.867Z,21.20
2022-09-26T04:41:33.247Z,21.30
2022-09-26T04:43:38.830Z,21.40
2022-09-26T04:45:44.942Z,21.70
2022-09-26T04:47:50.857Z,22.00
2022-09-26T04:50:01.396Z,22.40
2022-09-26T04:52:07.657Z,22.60
2022-09-26T04:54:11.994Z,22.50
2022-09-26T04:56:24.991Z,22.40
2022-09-26T04:58:29.544Z,22.30
2022-09-26T05:00:36.724Z,22.20
2022-09-26T05:02:43.917Z,21.80
2022-09-26T05:04:48.573Z,21.60
2022-09-26T05:06:58.006Z,21.60
2022-09-26T05:09:06.948Z,21.40
2022-09-26T05:11:23.004Z,21.70
2022-09-26T05:13:28.195Z,21.90
2022-09-26T05:15:33.398Z,22.60
2022-09-26T05:17:37.846Z,22.60
2022-09-26T05:19:44.934Z,23.10
2022-09-26T05:22:19.557Z,22.90
2022-09-26T05:24:42.286Z,22.10
2022-09-26T05:26:50.310Z,21.50
2022-09-26T05:28:56.920Z,21.10
2022-09-26T05:31:07.796Z,20.50
2022-09-26T05:33:13.177Z,20.70
2022-09-26T05:35:17.505Z,20.70
2022-09-26T05:37:22.798Z,21.00
2022-09-26T05:39:45.190Z,21.30
2022-09-26T05:41:54.522Z,21.90
2022-09-26T05:43:58.933Z,22.30
2022-09-26T05:46:06.447Z,22.70
2022-09-26T05:48:16.476Z,23.10
2022-09-26T05:50:22.561Z,23.40
2022-09-26T05:52:29.902Z,23.50
2022-09-26T05:54:34.702Z,23.80
2022-09-26T05:56:46.178Z,23.80
2022-09-26T05:59:24.153Z,23.80
2022-09-26T06:01:58.758Z,23.90
2022-09-26T06:04:30.089Z,23.90
2022-09-26T06:06:50.936Z,24.00
2022-09-26T06:08:55.107Z,24.10
2022-09-26T06:11:31.136Z,23.90
2022-09-26T06:13:36.759Z,23.80
2022-09-26T06:15:43.271Z,23.80
2022-09-26T06:17:48.273Z,23.70
2022-09-26T06:19:52.553Z,23.70
2022-09-26T06:21:57.738Z,23.30
2022-09-26T06:24:02.525Z,22.90
2022-09-26T06:26:11.070Z,22.80
2022-09-26T06:28:15.661Z,22.60
2022-09-26T06:30:20.185Z,22.60
2022-09-26T06:32:27.759Z,22.70
2022-09-26T06:34:54.461Z,22.80
2022-09-26T06:37:19.368Z,22.70
2022-09-26T06:39:23.547Z,22.80
2022-09-26T06:41:27.765Z,23.00
2022-09-26T06:43:33.934Z,23.10
2022-09-26T06:45:49.016Z,23.10
2022-09-26T06:48:24.495Z,23.40
2022-09-26T06:50:43.815Z,23.40
2022-09-26T06:52:48.217Z,23.40
2022-09-26T06:54:52.510Z,23.20
2022-09-26T06:56:56.949Z,23.20
2022-09-26T06:59:01.171Z,23.30
2022-09-26T07:01:12.016Z,23.40
2022-09-26T07:03:20.371Z,23.30
2022-09-26T07:05:33.442Z,23.30
2022-09-26T07:07:45.584Z,23.70
2022-09-26T07:09:58.944Z,23.80
2022-09-26T07:12:16.115Z,24.30
2022-09-26T07:14:21.311Z,24.60
2022-09-26T07:16:31.845Z,24.90
2022-09-26T07:18:58.353Z,25.10
2022-09-26T07:21:21.312Z,25.10
2022-09-26T07:23:45.739Z,25.10
2022-09-26T07:25:50.920Z,25.20
2022-09-26T07:27:55.718Z,25.50
2022-09-26T07:30:11.022Z,25.50
2022-09-26T07:32:26.006Z,25.10
2022-09-26T07:34:50.234Z,25.20
2022-09-26T07:36:55.117Z,25.40
2022-09-26T07:39:01.240Z,25.60
2022-09-26T07:41:10.904Z,25.70
2022-09-26T07:43:20.015Z,25.80
2022-09-26T07:45:41.428Z,25.90
2022-09-26T07:48:02.972Z,25.80
2022-09-26T07:50:28.801Z,26.20
2022-09-26T07:52:57.186Z,26.50
2022-09-26T07:55:01.295Z,26.60
2022-09-26T07:57:22.317Z,26.70
2022-09-26T07:59:50.522Z,26.90
2022-09-26T08:02:24.180Z,27.00
2022-09-26T08:04:28.921Z,27.20
2022-09-26T08:06:36.844Z,27.40
2022-09-26T08:08:41.452Z,27.60
2022-09-26T08:11:05.645Z,27.60
2022-09-26T08:13:31.877Z,27.30
2022-09-26T08:15:55.218Z,27.40
2022-09-26T08:18:06.347Z,27.40
2022-09-26T08:20:11.345Z,27.50
2022-09-26T08:22:16.876Z,27.70
2022-09-26T08:24:21.446Z,27.80
2022-09-26T08:26:45.787Z,27.90
2022-09-26T08:29:06.463Z,28.20
2022-09-26T08:31:11.642Z,28.00
2022-09-26T08:33:19.038Z,27.60
2022-09-26T08:35:23.601Z,27.30
2022-09-26T08:37:56.520Z,27.40
2022-09-26T08:40:33.969Z,27.40
2022-09-26T08:43:07.451Z,27.70
2022-09-26T08:45:56.427Z,27.80
2022-09-26T08:48:37.067Z,27.80
2022-09-26T08:50:57.417Z,27.80
2022-09-26T08:53:07.758Z,27.70
2022-09-26T08:55:22.247Z,27.80
2022-09-26T08:57:35.384Z,27.60
2022-09-26T08:59:43.579Z,27.50
2022-09-26T09:01:53.144Z,27.20
2022-09-26T09:04:20.605Z,27.30
2022-09-26T09:06:28.319Z,27.40
2022-09-26T09:08:39.276Z,27.40
2022-09-26T09:11:17.676Z,27.60
2022-09-26T09:13:47.963Z,27.50
2022-09-26T09:16:23.932Z,27.50
2022-09-26T09:18:57.266Z,27.50
2022-09-26T09:21:34.273Z,27.80
2022-09-26T09:24:19.029Z,28.10
2022-09-26T09:29:18.982Z,28.00
2022-09-26T09:31:44.455Z,27.90
2022-09-26T09:34:14.437Z,27.70
2022-09-26T09:36:41.823Z,27.50
2022-09-26T09:39:09.792Z,27.40
2022-09-26T09:41:46.007Z,27.30
2022-09-26T09:43:53.158Z,27.30
2022-09-26T09:46:03.396Z,27.40
2022-09-26T09:48:13.232Z,27.50
2022-09-26T09:50:27.420Z,27.50
2022-09-26T09:52:46.161Z,27.20
2022-09-26T09:55:04.039Z,27.10
2022-09-26T09:57:25.200Z,27.00
2022-09-26T10:00:02.997Z,27.00
2022-09-26T10:02:28.747Z,27.10
2022-09-26T10:04:44.225Z,27.40
2022-09-26T10:06:51.158Z,27.70
2022-09-26T10:09:00.540Z,28.00
2022-09-26T10:11:51.814Z,28.00
2022-09-26T10:14:20.477Z,27.90
2022-09-26T10:17:14.875Z,27.90
2022-09-26T10:19:37.515Z,27.80
2022-09-26T10:21:44.613Z,27.60
2022-09-26T10:23:51.090Z,27.80
2022-09-26T10:26:31.150Z,27.70
2022-09-26T10:28:50.242Z,27.70
2022-09-26T10:31:00.428Z,27.90
2022-09-26T10:33:05.759Z,28.10
2022-09-26T10:35:30.470Z,28.20
2022-09-26T10:37:39.942Z,28.20
2022-09-26T10:40:12.656Z,28.00
2022-09-26T10:42:20.332Z,27.70
2022-09-26T10:44:30.282Z,27.40
2022-09-26T10:46:46.729Z,27.30
2022-09-26T10:49:36.299Z,27.30
2022-09-26T10:52:05.564Z,27.20
2022-09-26T10:54:14.102Z,27.20
2022-09-26T10:56:26.016Z,27.30
2022-09-26T10:58:31.104Z,27.20
2022-09-26T11:00:45.160Z,27.00
2022-09-26T11:02:54.481Z,27.00
2022-09-26T11:05:19.427Z,27.00
2022-09-26T11:07:52.293Z,27.10
2022-09-26T11:10:15.030Z,26.90
2022-09-26T11:12:30.227Z,26.90
2022-09-26T11:14:46.413Z,26.80
2022-09-26T11:16:56.930Z,26.80
2022-09-26T11:19:05.494Z,26.80
2022-09-26T11:21:28.847Z,26.60
2022-09-26T11:23:40.662Z,26.60
2022-09-26T11:25:58.169Z,26.40
2022-09-26T11:28:07.852Z,26.60
2022-09-26T11:30:48.297Z,26.70
2022-09-26T11:33:01.042Z,26.60
2022-09-26T11:35:34.863Z,26.60
2022-09-26T11:38:03.583Z,26.30
2022-09-26T11:40:32.296Z,26.30
2022-09-26T11:42:53.027Z,26.30
2022-09-26T11:44:59.817Z,26.30
2022-09-26T11:47:55.760Z,26.20
2022-09-26T11:50:35.635Z,26.20
2022-09-26T11:52:58.829Z,26.40
2022-09-26T11:55:16.331Z,26.40
2022-09-26T11:57:35.981Z,26.40
2022-09-26T12:00:07.582Z,26.40
2022-09-26T12:02:41.245Z,26.40
2022-09-26T12:05:04.381Z,26.50
2022-09-26T12:07:17.619Z,26.50
2022-09-26T12:09:36.195Z,26.40
2022-09-26T12:11:49.276Z,26.40
2022-09-26T12:14:01.836Z,26.40
2022-09-26T12:16:14.762Z,26.40
2022-09-26T12:18:29.435Z,26.40
2022-09-26T12:20:39.544Z,26.40
2022-09-26T12:22:52.303Z,26.40
2022-09-26T12:25:05.013Z,26.40
2022-09-26T12:27:18.655Z,26.40
2022-09-26T12:29:34.334Z,26.40
2022-09-26T12:31:55.015Z,26.40
2022-09-26T12:34:25.116Z,26.40
2022-09-26T12:36:47.597Z,26.30
2022-09-26T12:39:17.268Z,26.40
2022-09-26T12:41:51.940Z,26.20
2022-09-26T12:44:22.873Z,26.20
2022-09-26T12:46:53.535Z,26.30
2022-09-26T12:49:14.278Z,26.40
2022-09-26T12:51:28.779Z,26.50
2022-09-26T12:53:45.741Z,26.70
2022-09-26T12:56:02.587Z,26.80
2022-09-26T12:58:26.051Z,26.90
2022-09-26T13:00:40.884Z,26.90
2022-09-26T13:03:20.049Z,26.90
2022-09-26T13:05:39.693Z,26.80
2022-09-26T13:07:53.643Z,26.70
2022-09-26T13:10:18.954Z,26.80
2022-09-26T13:12:40.671Z,26.70
2022-09-26T13:15:02.159Z,26.70
2022-09-26T13:17:14.227Z,26.50
2022-09-26T13:19:25.785Z,26.60
2022-09-26T13:21:44.253Z,26.60
2022-09-26T13:23:55.332Z,26.60
2022-09-26T13:26:04.630Z,26.60
2022-09-26T13:28:17.787Z,26.50
2022-09-26T13:30:26.396Z,26.60
2022-09-26T13:32:36.798Z,26.50
2022-09-26T13:34:46.059Z,26.50
2022-09-26T13:36:51.423Z,26.40
2022-09-26T13:39:03.417Z,26.40
2022-09-26T13:41:36.806Z,26.40
2022-09-26T13:43:56.035Z,26.40
2022-09-26T13:46:06.242Z,26.60
2022-09-26T13:48:15.209Z,26.80
2022-09-26T13:50:25.674Z,26.80
2022-09-26T13:52:43.273Z,26.80
2022-09-26T13:55:00.764Z,26.70
2022-09-26T13:57:31.982Z,26.70
2022-09-26T13:59:54.430Z,26.70
2022-09-26T14:02:25.086Z,26.60
2022-09-26T14:04:35.233Z,26.40
2022-09-26T14:06:39.603Z,26.40
2022-09-26T14:09:24.408Z,26.50
2022-09-26T14:11:46.506Z,26.60
2022-09-26T14:14:25.240Z,26.60
2022-09-26T14:16:38.419Z,26.40
2022-09-26T14:18:57.697Z,26.40
2022-09-26T14:21:13.886Z,26.40
2022-09-26T14:23:36.863Z,26.50
2022-09-26T14:25:58.138Z,26.50
2022-09-26T14:28:17.298Z,26.60
2022-09-26T14:30:28.357Z,26.70
2022-09-26T14:32:40.566Z,26.70
2022-09-26T14:34:46.628Z,26.80
2022-09-26T14:36:52.975Z,26.80
2022-09-26T14:38:58.094Z,26.80
2022-09-26T14:41:02.508Z,26.80
2022-09-26T14:43:14.420Z,26.80
2022-09-26T14:45:26.103Z,26.80
2022-09-26T14:47:40.494Z,26.70
2022-09-26T14:49:58.727Z,26.70
2022-09-26T14:52:08.938Z,26.50
2022-09-26T14:54:24.326Z,26.50
2022-09-26T14:56:40.996Z,26.40
2022-09-26T14:58:51.387Z,26.40
2022-09-26T15:00:56.858Z,26.50
2022-09-26T15:03:05.100Z,26.40
2022-09-26T15:05:24.055Z,26.30
2022-09-26T15:07:31.836Z,26.30
2022-09-26T15:09:43.758Z,26.30
2022-09-26T15:11:50.410Z,26.30
2022-09-26T15:13:56.535Z,26.20
2022-09-26T15:16:15.248Z,26.20
2022-09-26T15:18:30.992Z,26.10
2022-09-26T15:20:41.873Z,26.00
2022-09-26T15:22:46.934Z,26.00
2022-09-26T15:24:54.806Z,26.00
2022-09-26T15:27:02.038Z,26.00
2022-09-26T15:29:12.457Z,26.00
2022-09-26T15:31:25.341Z,25.90
2022-09-26T15:33:29.766Z,25.90
2022-09-26T15:35:36.914Z,25.90
2022-09-26T15:37:42.307Z,25.90
2022-09-26T15:39:46.925Z,25.60
2022-09-26T15:42:08.911Z,25.60
2022-09-26T15:44:24.275Z,25.60
2022-09-26T15:46:29.320Z,25.60
2022-09-26T15:48:34.152Z,25.60
2022-09-26T15:50:44.023Z,25.60
2022-09-26T15:52:55.328Z,25.50
2022-09-26T15:55:02.574Z,25.40
2022-09-26T15:57:10.297Z,25.30
2022-09-26T15:59:22.201Z,25.30
2022-09-26T16:01:30.195Z,25.20
2022-09-26T16:03:48.224Z,24.90
2022-09-26T16:05:54.639Z,24.90
2022-09-26T16:07:58.929Z,24.80
2022-09-26T16:10:05.708Z,24.60
2022-09-26T16:12:20.314Z,24.40
2022-09-26T16:14:30.177Z,24.30
2022-09-26T16:16:36.274Z,24.10
2022-09-26T16:18:47.943Z,24.00
2022-09-26T16:21:13.668Z,23.90
2022-09-26T16:23:27.644Z,23.70
2022-09-26T16:25:52.804Z,23.70
2022-09-26T16:28:17.930Z,23.60
2022-09-26T16:30:53.309Z,23.50
2022-09-26T16:33:15.423Z,23.40
2022-09-26T16:35:26.021Z,23.20
2022-09-26T16:37:36.872Z,23.20
2022-09-26T16:39:41.696Z,23.10
2022-09-26T16:42:01.765Z,23.00
2022-09-26T16:44:10.649Z,22.80
2022-09-26T16:46:18.595Z,22.70
2022-09-26T16:48:40.416Z,22.70
2022-09-26T16:50:44.929Z,22.70
2022-09-26T16:52:50.895Z,22.60
2022-09-26T16:54:56.257Z,22.60
2022-09-26T16:57:00.982Z,22.50
2022-09-26T16:59:13.265Z,22.50
2022-09-26T17:01:35.948Z,22.40
2022-09-26T17:03:41.224Z,22.40
2022-09-26T17:05:45.731Z,22.40
2022-09-26T17:07:52.295Z,22.30
2022-09-26T17:09:57.030Z,22.30
2022-09-26T17:12:05.391Z,22.20
2022-09-26T17:14:16.468Z,22.10
2022-09-26T17:16:22.235Z,22.10
2022-09-26T17:18:29.901Z,22.10
2022-09-26T17:20:34.386Z,22.10
2022-09-26T17:22:42.972Z,22.10
2022-09-26T17:24:49.788Z,22.10
2022-09-26T17:26:56.586Z,22.10
2022-09-26T17:29:01.159Z,22.00
2022-09-26T17:31:07.839Z,22.00
2022-09-26T17:33:13.404Z,22.00
2022-09-26T17:35:25.989Z,21.90
2022-09-26T17:37:31.051Z,21.90
2022-09-26T17:39:39.355Z,21.90
2022-09-26T17:41:45.764Z,21.80
2022-09-26T17:44:01.136Z,21.80
2022-09-26T17:46:06.439Z,21.80
2022-09-26T17:48:15.564Z,21.70
2022-09-26T17:50:25.301Z,21.70
2022-09-26T17:52:32.480Z,21.70
2022-09-26T17:54:42.736Z,21.70
2022-09-26T17:56:49.128Z,21.70
2022-09-26T17:58:54.535Z,21.70
2022-09-26T18:01:01.826Z,21.70
2022-09-26T18:03:09.113Z,21.70
2022-09-26T18:05:21.731Z,21.70
2022-09-26T18:07:29.986Z,21.70
2022-09-26T18:09:36.416Z,21.70
2022-09-26T18:11:42.793Z,21.70
2022-09-26T18:13:54.725Z,21.70
2022-09-26T18:16:00.206Z,21.60
2022-09-26T18:18:04.937Z,21.60
2022-09-26T18:20:10.002Z,21.60
2022-09-26T18:22:19.029Z,21.70
2022-09-26T18:24:28.005Z,21.70
2022-09-26T18:26:34.537Z,21.50
2022-09-26T18:28:40.115Z,21.60
2022-09-26T18:30:48.876Z,21.60
2022-09-26T18:32:56.593Z,21.50
2022-09-26T18:35:01.575Z,21.50
2022-09-26T18:37:07.830Z,21.50
2022-09-26T18:39:12.591Z,21.50
2022-09-26T18:41:18.920Z,21.40
2022-09-26T18:43:25.270Z,21.30
2022-09-26T18:45:36.083Z,21.30
2022-09-26T18:47:44.800Z,21.30
2022-09-26T18:49:49.409Z,21.30
2022-09-26T18:51:54.144Z,21.30
2022-09-26T18:53:58.558Z,21.30
2022-09-26T18:56:38.011Z,21.30
2022-09-26T18:58:44.163Z,21.30
2022-09-26T19:00:56.890Z,21.30
2022-09-26T19:03:09.030Z,21.30
2022-09-26T19:05:18.834Z,21.30
2022-09-26T19:07:26.081Z,21.30
2022-09-26T19:09:34.439Z,21.30
2022-09-26T19:11:42.668Z,21.30
2022-09-26T19:13:55.495Z,21.30
2022-09-26T19:16:00.475Z,21.20
2022-09-26T19:18:10.426Z,21.20
2022-09-26T19:20:23.029Z,21.10
2022-09-26T19:22:27.976Z,21.10
2022-09-26T19:24:35.700Z,21.10
2022-09-26T19:26:43.763Z,21.10
2022-09-26T19:28:51.271Z,21.00
2022-09-26T19:30:57.080Z,20.90
2022-09-26T19:33:02.183Z,20.90
2022-09-26T19:35:14.930Z,20.90
2022-09-26T19:37:23.143Z,20.90
2022-09-26T19:39:29.916Z,20.90
2022-09-26T19:41:34.638Z,20.90
2022-09-26T19:43:39.303Z,20.90
2022-09-26T19:45:44.188Z,21.00
2022-09-26T19:47:51.261Z,21.00
2022-09-26T19:49:55.748Z,21.00
2022-09-26T19:52:02.955Z,20.90
2022-09-26T19:54:07.943Z,20.80
2022-09-26T19:56:12.625Z,20.70
2022-09-26T19:58:19.546Z,20.70
2022-09-26T20:00:24.242Z,20.80
2022-09-26T20:02:33.367Z,20.80
2022-09-26T20:04:38.230Z,20.80
2022-09-26T20:06:42.916Z,20.80
2022-09-26T20:08:49.522Z,20.70
2022-09-26T20:10:54.670Z,20.80
2022-09-26T20:12:59.115Z,20.80
2022-09-26T20:15:03.595Z,20.80
2022-09-26T20:17:17.959Z,20.80
2022-09-26T20:19:29.660Z,20.80
2022-09-26T20:21:34.740Z,20.80
2022-09-26T20:23:39.499Z,20.80
2022-09-26T20:25:46.617Z,20.80
2022-09-26T20:27:51.044Z,20.80
2022-09-26T20:30:13.422Z,20.70
2022-09-26T20:32:19.317Z,20.70
2022-09-26T20:34:24.171Z,20.60
2022-09-26T20:36:32.228Z,20.60
2022-09-26T20:38:43.420Z,20.60
2022-09-26T20:40:50.734Z,20.60
2022-09-26T20:43:00.343Z,20.60
2022-09-26T20:45:05.614Z,20.50
2022-09-26T20:47:14.620Z,20.40
2022-09-26T20:49:22.947Z,20.30
2022-09-26T20:51:30.146Z,20.30
2022-09-26T20:53:34.860Z,20.30
2022-09-26T20:55:43.821Z,20.40
2022-09-26T20:57:50.966Z,20.30
2022-09-26T21:00:04.617Z,20.30
2022-09-26T21:02:28.389Z,20.30
2022-09-26T21:04:33.982Z,20.40
2022-09-26T21:06:38.504Z,20.30
2022-09-26T21:08:43.547Z,20.40
2022-09-26T21:10:47.970Z,20.40
2022-09-26T21:12:54.888Z,20.40
2022-09-26T21:14:59.693Z,20.40
2022-09-26T21:17:04.363Z,20.30
2022-09-26T21:19:13.481Z,20.40
2022-09-26T21:21:23.238Z,20.30
2022-09-26T21:23:38.070Z,20.30
2022-09-26T21:25:43.441Z,20.20
2022-09-26T21:27:48.535Z,20.20
2022-09-26T21:29:54.450Z,20.20
2022-09-26T21:32:03.055Z,20.20
2022-09-26T21:34:19.440Z,20.20
2022-09-26T21:36:25.071Z,20.20
2022-09-26T21:38:29.644Z,20.10
2022-09-26T21:40:40.623Z,20.10
2022-09-26T21:42:49.802Z,20.10
2022-09-26T21:45:00.382Z,20.10
2022-09-26T21:47:05.351Z,20.00
2022-09-26T21:49:09.842Z,19.90
2022-09-26T21:51:14.593Z,19.90
2022-09-26T21:53:22.406Z,19.90
2022-09-26T21:55:31.350Z,20.00
2022-09-26T21:57:41.462Z,20.00
2022-09-26T21:59:47.689Z,19.90
2022-09-26T22:01:53.741Z,19.90
2022-09-26T22:03:58.602Z,19.90
2022-09-26T22:06:07.349Z,19.90
2022-09-26T22:08:12.306Z,19.70
2022-09-26T22:10:17.345Z,19.70
2022-09-26T22:12:22.407Z,19.60
2022-09-26T22:14:28.707Z,19.60
2022-09-26T22:16:33.326Z,19.60
2022-09-26T22:18:40.355Z,19.50
2022-09-26T22:20:44.992Z,19.50
2022-09-26T22:22:49.594Z,19.60
2022-09-26T22:24:54.861Z,19.60
2022-09-26T22:26:59.391Z,19.60
2022-09-26T22:29:03.786Z,19.70
2022-09-26T22:31:08.549Z,19.60
2022-09-26T22:33:14.229Z,19.60
2022-09-26T22:35:20.170Z,19.50
2022-09-26T22:37:24.964Z,19.50
2022-09-26T22:39:29.329Z,19.40
2022-09-26T22:41:34.150Z,19.40
2022-09-26T22:43:38.527Z,19.40
2022-09-26T22:45:43.175Z,19.40
2022-09-26T22:47:47.680Z,19.40
2022-09-26T22:49:52.217Z,19.50
2022-09-26T22:51:58.291Z,19.50
2022-09-26T22:54:03.073Z,19.60
2022-09-26T22:56:09.230Z,19.50
2022-09-26T22:58:13.801Z,19.50
2022-09-26T23:00:18.735Z,19.60
2022-09-26T23:02:23.150Z,19.60
2022-09-26T23:04:47.006Z,19.50
2022-09-26T23:06:51.579Z,19.50
2022-09-26T23:08:58.226Z,19.50
2022-09-26T23:11:03.445Z,19.50
2022-09-26T23:13:07.908Z,19.50
2022-09-26T23:15:12.954Z,19.50
2022-09-26T23:17:18.233Z,19.50
2022-09-26T23:19:22.831Z,19.50
2022-09-26T23:21:29.315Z,19.60
2022-09-26T23:23:34.011Z,19.60
2022-09-26T23:25:49.432Z,19.50
2022-09-26T23:27:53.894Z,19.50
2022-09-26T23:29:58.570Z,19.40
2022-09-26T23:32:03.147Z,19.40
2022-09-26T23:34:08.200Z,19.30
2022-09-26T23:36:13.297Z,19.20
2022-09-26T23:38:18.351Z,19.20
2022-09-26T23:40:26.505Z,19.20
2022-09-26T23:42:32.569Z,19.20
2022-09-26T23:44:37.151Z,19.20
2022-09-26T23:46:41.743Z,19.30
2022-09-26T23:48:46.253Z,19.30
2022-09-26T23:50:50.774Z,19.20
2022-09-26T23:52:55.285Z,19.20
2022-09-26T23:54:59.683Z,19.20
2022-09-26T23:57:04.246Z,19.20
2022-09-26T23:59:10.402Z,19.00
